ENMS  Mosjøen Airport, Kjærstad Airport

Add Bookmark

Norway

Status IATA
Operational MJF
Latitude Longitude
65° 47' 2" N 13° 12' 53" E
65.783997 13.214900
Local (DST + 2) UTC (GMT + 1)
Oct 20, 2014 01:19 Oct 20, 2014 11:19
Sunrise-Sunset Local UTC
Begin Civil Twilight 07:24 05:24
Sunrise 08:17 06:17
Sunset 05:25 15:25
End Civil Twilight 06:18 16:18

Current Weather

METAR Observed VFR
ENMS 201050Z 18007KT 9999 FEW035 05/M03 Q0998 Mon, Oct 20, 2014 @ 10:50 UTC
(29 Minutes ago)
Visual Flight Rules
Wind Visibility Clouds Conditions
180° at 7 knots (13 kph) 10 km or more
  • Few at 3,500' AGL
  • No significant weather
Temperatures Readings Precipitation
Current Temp 5°C (41°F)
Low Temp 0°C (32°F)
Dewpoint -3°C (27°F)
Humidity 57%
Altimeter 29.47"Hg
Sea Level Pressure 998mb
Field Elevation 229.66'
None Recorded

Additional weather within a 92.6km radius of ENMS

Map ICAO Location
ENST 38.9km W (300°)
ENBN 58.2km S (232°)
ENRA 80.9km N (037°)
ESUT 85.2km E (087°)

24 Hour Weather History

Loading
-

24 Hour Weather Graphs

Loading
-

CheckWX.com is intended as a tool to help pilots better visualize weather data. It is not intended as a substitute for an official weather briefing obtained from a Flight Service Station. CheckWX.com does not meet the FAA requirements for an official pre-flight weather briefing. Therefore, it's important that pilots still call and obtain an official FSS pre-flight weather briefing.